Time;durP1;ratioP1;P1;durP2;ratioP2;P2;SDS_P1;SDS_P2;PMS_P1;PMS_P2;Temp;Humidity;BMP_temperature;BMP_pressure;BME280_temperature;BME280_humidity;BME280_pressure;Samples;Min_cycle;Max_cycle;Signal;HPM_P1;HPM_P2
2024/01/30 00:00:19;;;;;;;0.55;0.55;;;;;;;9.55;71.40;102646.50;4973575;28;20027;-79
2024/01/30 00:02:45;;;;;;;0.10;0.10;;;;;;;9.57;71.45;102642.13;4975155;28;20035;-80
2024/01/30 00:05:12;;;;;;;0.10;0.10;;;;;;;9.59;71.64;102645.66;4976921;28;20038;-77
2024/01/30 00:07:38;;;;;;;0.57;0.40;;;;;;;9.59;72.34;102640.34;4974994;28;20066;-80
2024/01/30 00:10:06;;;;;;;0.20;0.20;;;;;;;9.63;72.07;102642.19;4974154;28;20082;-81
2024/01/30 00:12:32;;;;;;;1.45;1.00;;;;;;;9.66;72.09;102638.69;4977079;28;20529;-81
2024/01/30 00:14:58;;;;;;;0.10;0.10;;;;;;;9.68;72.14;102639.59;4973333;28;20045;-81
2024/01/30 00:17:26;;;;;;;0.35;0.35;;;;;;;9.69;72.44;102642.28;4975556;28;20023;-81
2024/01/30 00:19:52;;;;;;;0.22;0.22;;;;;;;9.74;72.30;102633.50;4976680;28;20085;-79
2024/01/30 00:22:18;;;;;;;0.10;0.10;;;;;;;9.76;72.28;102631.72;4972219;28;20035;-81
2024/01/30 00:24:44;;;;;;;0.65;0.65;;;;;;;9.78;72.21;102627.34;4972716;28;20026;-80
2024/01/30 00:27:11;;;;;;;0.10;0.10;;;;;;;9.80;72.35;102630.91;4968703;28;20053;-81
2024/01/30 00:29:37;;;;;;;0.10;0.10;;;;;;;9.83;72.16;102633.59;4969946;28;20127;-80
2024/01/30 00:32:03;;;;;;;0.10;0.10;;;;;;;9.83;72.22;102636.25;4972947;28;20034;-78
2024/01/30 00:34:29;;;;;;;0.40;0.40;;;;;;;9.86;72.10;102641.59;4978280;28;20031;-79
2024/01/30 00:36:55;;;;;;;1.95;1.85;;;;;;;9.87;71.81;102646.00;4975644;28;20071;-80
2024/01/30 00:39:22;;;;;;;0.13;0.13;;;;;;;9.86;72.21;102637.16;4974539;28;20023;-80
2024/01/30 00:41:48;;;;;;;3.58;1.25;;;;;;;9.84;72.20;102615.09;4975037;28;20089;-78
2024/01/30 00:44:14;;;;;;;0.10;0.10;;;;;;;9.87;72.05;102603.66;4969618;28;20031;-79
2024/01/30 00:46:40;;;;;;;0.63;0.63;;;;;;;9.88;71.95;102594.81;4977375;28;20065;-80
2024/01/30 00:49:06;;;;;;;1.15;1.08;;;;;;;9.92;71.74;102603.69;4972657;28;20042;-80
2024/01/30 00:51:32;;;;;;;0.10;0.10;;;;;;;9.93;71.72;102616.97;4973410;28;20035;-80
2024/01/30 00:53:59;;;;;;;0.73;0.73;;;;;;;9.93;71.73;102609.03;4969619;28;20115;-80
2024/01/30 00:56:25;;;;;;;0.15;0.15;;;;;;;9.95;71.59;102609.91;4974305;28;20022;-80
2024/01/30 00:58:51;;;;;;;0.10;0.10;;;;;;;9.95;71.43;102607.25;4972876;28;20498;-79
2024/01/30 01:01:17;;;;;;;0.10;0.10;;;;;;;9.96;71.32;102618.75;4974098;28;20039;-80
2024/01/30 01:03:43;;;;;;;0.65;0.65;;;;;;;9.94;71.25;102626.66;4974527;28;20050;-80
2024/01/30 01:06:10;;;;;;;0.28;0.28;;;;;;;9.93;71.09;102624.91;4974031;28;20027;-80
2024/01/30 01:08:36;;;;;;;0.22;0.22;;;;;;;9.92;71.28;102631.06;4978466;28;20026;-80
2024/01/30 01:11:03;;;;;;;0.10;0.10;;;;;;;9.92;71.23;102633.72;4975990;28;20034;-81
2024/01/30 01:13:29;;;;;;;0.40;0.40;;;;;;;9.91;71.03;102626.63;4976416;28;20045;-79
2024/01/30 01:15:55;;;;;;;0.75;0.75;;;;;;;9.90;70.95;102624.84;4977499;28;20537;-81
2024/01/30 01:18:22;;;;;;;0.10;0.10;;;;;;;9.90;70.98;102618.69;4974553;28;20094;-80
2024/01/30 01:20:48;;;;;;;0.10;0.10;;;;;;;9.89;71.00;102617.78;4980089;28;20062;-80
2024/01/30 01:23:14;;;;;;;0.47;0.47;;;;;;;9.87;70.89;102604.53;4976961;28;20031;-80
2024/01/30 01:25:40;;;;;;;0.10;0.10;;;;;;;9.85;70.96;102602.75;4975721;28;20027;-81
2024/01/30 01:28:07;;;;;;;0.10;0.10;;;;;;;9.82;70.97;102606.25;4975305;28;20032;-79
2024/01/30 01:30:33;;;;;;;0.20;0.20;;;;;;;9.82;70.68;102589.44;4970453;28;20038;-81
2024/01/30 01:33:02;;;;;;;0.57;0.57;;;;;;;9.80;70.86;102597.38;4972731;28;20031;-79
2024/01/30 01:35:28;;;;;;;0.10;0.10;;;;;;;9.77;70.85;102599.09;4978095;28;20042;-80
2024/01/30 01:37:55;;;;;;;0.00;0.00;;;;;;;9.77;70.71;102609.69;4978057;28;20408;-78
2024/01/30 01:40:23;;;;;;;2.38;0.75;;;;;;;9.76;70.89;102595.56;4973740;28;20118;-80
2024/01/30 01:42:52;;;;;;;0.22;0.22;;;;;;;9.80;70.78;102596.50;4975582;28;20099;-79
2024/01/30 01:45:18;;;;;;;0.10;0.10;;;;;;;9.78;70.78;102587.66;4973441;28;20125;-81
2024/01/30 01:47:48;;;;;;;0.10;0.10;;;;;;;9.82;70.66;102592.09;4975853;28;20026;-80
2024/01/30 01:50:20;;;;;;;0.10;0.10;;;;;;;9.81;70.85;102593.00;4978940;28;20053;-81
2024/01/30 01:52:48;;;;;;;0.15;0.15;;;;;;;9.86;70.57;102591.28;4974724;28;20030;-81
2024/01/30 01:55:16;;;;;;;0.10;0.10;;;;;;;9.83;70.93;102591.22;4966518;28;20030;-80
2024/01/30 01:57:42;;;;;;;0.25;0.25;;;;;;;9.87;70.79;102603.66;4968681;28;20050;-81
2024/01/30 02:00:10;;;;;;;0.08;0.08;;;;;;;9.86;70.53;102600.09;4967407;28;20070;-79
2024/01/30 02:02:37;;;;;;;0.10;0.10;;;;;;;9.88;70.56;102619.56;4968996;28;20057;-80
2024/01/30 02:05:03;;;;;;;0.65;0.65;;;;;;;9.89;70.63;102623.06;4968296;28;20486;-80
2024/01/30 02:07:30;;;;;;;0.30;0.30;;;;;;;9.91;70.74;102601.94;4968882;28;20022;-80
2024/01/30 02:09:56;;;;;;;2.00;0.80;;;;;;;9.92;70.89;102607.25;4968303;28;20533;-81
2024/01/30 02:12:22;;;;;;;0.20;0.20;;;;;;;9.94;70.80;102589.59;4967865;28;20067;-80
2024/01/30 02:14:50;;;;;;;0.10;0.10;;;;;;;9.98;70.69;102587.84;4967414;28;20406;-81
2024/01/30 02:17:17;;;;;;;0.10;0.10;;;;;;;10.00;70.48;102578.19;4968525;28;20451;-81
2024/01/30 02:19:43;;;;;;;0.15;0.15;;;;;;;10.02;70.31;102572.03;4975592;28;20035;-79
2024/01/30 02:22:10;;;;;;;0.10;0.10;;;;;;;10.02;70.58;102572.03;4970947;28;20034;-79
2024/01/30 02:24:36;;;;;;;0.10;0.10;;;;;;;10.02;70.62;102572.03;4971695;28;20038;-80
2024/01/30 02:27:02;;;;;;;0.10;0.10;;;;;;;10.03;70.56;102573.81;4962701;28;20027;-81
2024/01/30 02:29:28;;;;;;;0.20;0.20;;;;;;;10.01;70.50;102575.53;4973015;28;20057;-79
2024/01/30 02:31:55;;;;;;;1.15;1.15;;;;;;;10.01;70.44;102566.72;4977908;28;20031;-80
2024/01/30 02:34:21;;;;;;;0.10;0.10;;;;;;;10.01;70.36;102572.91;4977336;28;20164;-81
2024/01/30 02:36:47;;;;;;;0.10;0.10;;;;;;;10.02;70.28;102563.22;4977692;28;20042;-80
2024/01/30 02:39:13;;;;;;;0.20;0.20;;;;;;;10.04;70.27;102574.69;4975722;28;20046;-81
2024/01/30 02:41:39;;;;;;;0.40;0.40;;;;;;;10.04;70.35;102583.53;4974662;28;20031;-79
2024/01/30 02:44:06;;;;;;;0.10;0.10;;;;;;;10.03;70.42;102579.09;4971710;28;20478;-80
2024/01/30 02:46:32;;;;;;;0.10;0.10;;;;;;;10.04;70.38;102569.38;4975522;28;20049;-80
2024/01/30 02:48:58;;;;;;;0.10;0.10;;;;;;;10.04;70.36;102574.69;4974422;28;20037;-81
2024/01/30 02:51:24;;;;;;;0.15;0.15;;;;;;;10.08;70.44;102575.59;4976069;28;20081;-80
2024/01/30 02:53:50;;;;;;;0.10;0.10;;;;;;;10.06;70.43;102570.31;4975571;28;20027;-81
2024/01/30 02:56:17;;;;;;;0.52;0.52;;;;;;;10.01;70.78;102564.94;4978418;28;20046;-79
2024/01/30 02:58:43;;;;;;;0.17;0.17;;;;;;;10.08;70.78;102570.31;4979220;28;20027;-80
2024/01/30 03:01:09;;;;;;;0.40;0.40;;;;;;;10.09;71.11;102566.78;4974750;28;20045;-80
2024/01/30 03:03:35;;;;;;;0.70;0.70;;;;;;;10.13;70.64;102568.59;4969789;28;20154;-79
2024/01/30 03:06:02;;;;;;;0.10;0.10;;;;;;;10.14;70.99;102559.78;4977518;28;20533;-79
2024/01/30 03:08:28;;;;;;;1.35;1.17;;;;;;;10.13;71.00;102550.94;4979222;28;20031;-81
2024/01/30 03:10:55;;;;;;;0.10;0.10;;;;;;;10.14;71.09;102543.88;4979756;28;20063;-80
2024/01/30 03:13:23;;;;;;;0.10;0.10;;;;;;;10.12;71.05;102545.63;4977002;28;20024;-80
2024/01/30 03:15:49;;;;;;;0.40;0.40;;;;;;;10.15;70.95;102535.94;4977359;28;20367;-80
2024/01/30 03:18:15;;;;;;;0.28;0.28;;;;;;;10.14;71.26;102533.28;4982927;28;20049;-80
2024/01/30 03:20:42;;;;;;;0.17;0.17;;;;;;;10.16;70.93;102542.16;4970996;28;20054;-80
2024/01/30 03:23:08;;;;;;;1.48;0.95;;;;;;;10.19;70.76;102540.41;4964101;28;20054;-81
2024/01/30 03:25:34;;;;;;;0.30;0.30;;;;;;;10.21;70.76;102540.41;4977913;28;20050;-79
2024/01/30 03:28:00;;;;;;;0.10;0.10;;;;;;;10.16;71.32;102536.84;4986493;28;20027;-79
2024/01/30 03:30:26;;;;;;;0.20;0.20;;;;;;;10.19;71.35;102536.84;4983672;28;20034;-79
2024/01/30 03:32:53;;;;;;;0.43;0.43;;;;;;;10.24;71.29;102535.13;4978659;28;20031;-81
2024/01/30 03:35:19;;;;;;;0.10;0.10;;;;;;;10.26;70.91;102540.47;4982639;28;20111;-79
2024/01/30 03:37:45;;;;;;;0.40;0.40;;;;;;;10.29;71.14;102538.75;4983457;28;20031;-81
2024/01/30 03:40:12;;;;;;;0.88;0.85;;;;;;;10.29;71.05;102544.03;4983774;28;20023;-79
2024/01/30 03:42:38;;;;;;;0.40;0.40;;;;;;;10.31;71.07;102534.31;4975239;28;20027;-79
2024/01/30 03:45:05;;;;;;;0.30;0.30;;;;;;;10.29;71.11;102541.38;4980198;28;20027;-80
2024/01/30 03:47:31;;;;;;;0.10;0.10;;;;;;;10.31;71.11;102542.25;4982513;28;20211;-81
2024/01/30 03:49:57;;;;;;;0.10;0.10;;;;;;;10.34;71.49;102537.00;4979427;28;20026;-80
2024/01/30 03:52:24;;;;;;;3.35;1.35;;;;;;;10.39;71.34;102544.13;4981930;28;20034;-81
2024/01/30 03:54:50;;;;;;;0.20;0.20;;;;;;;10.36;71.17;102548.53;4974552;28;20704;-80
2024/01/30 03:57:16;;;;;;;0.20;0.20;;;;;;;10.40;71.18;102545.91;4980190;28;20038;-80
2024/01/30 03:59:43;;;;;;;0.10;0.10;;;;;;;10.42;71.06;102546.78;4976632;28;20023;-79
2024/01/30 04:02:11;;;;;;;0.17;0.17;;;;;;;10.37;71.34;102536.19;4983557;28;20030;-80
2024/01/30 04:04:37;;;;;;;1.95;1.65;;;;;;;10.40;71.57;102535.31;4975118;28;20035;-80
2024/01/30 04:07:04;;;;;;;0.10;0.10;;;;;;;10.39;71.39;102533.53;4976555;28;20062;-80
2024/01/30 04:09:30;;;;;;;0.17;0.17;;;;;;;10.43;71.31;102541.53;4980006;28;20034;-81
2024/01/30 04:11:56;;;;;;;1.33;1.23;;;;;;;10.43;71.34;102530.03;4979873;28;20058;-80
2024/01/30 04:14:22;;;;;;;0.20;0.20;;;;;;;10.46;71.18;102527.41;4976197;28;20053;-81
2024/01/30 04:16:48;;;;;;;0.10;0.10;;;;;;;10.46;70.88;102520.34;4979072;28;20082;-81
2024/01/30 04:19:14;;;;;;;0.55;0.55;;;;;;;10.46;70.99;102517.69;4980783;28;20031;-81
2024/01/30 04:21:41;;;;;;;0.75;0.75;;;;;;;10.47;70.98;102522.13;4981236;28;20396;-81
2024/01/30 04:24:07;;;;;;;0.40;0.40;;;;;;;10.46;70.64;102523.00;4975954;28;20027;-79
2024/01/30 04:26:33;;;;;;;0.20;0.20;;;;;;;10.48;71.19;102530.94;4980788;28;20108;-78
2024/01/30 04:28:59;;;;;;;0.13;0.13;;;;;;;10.51;71.07;102526.56;4975443;28;20038;-79
2024/01/30 04:31:25;;;;;;;0.57;0.57;;;;;;;10.46;70.88;102520.34;4979186;28;20035;-80
2024/01/30 04:33:51;;;;;;;0.30;0.30;;;;;;;10.50;70.70;102521.25;4979985;28;20030;-79
2024/01/30 04:36:18;;;;;;;0.30;0.30;;;;;;;10.49;70.98;102517.72;4980542;28;20037;-79
2024/01/30 04:38:44;;;;;;;0.45;0.30;;;;;;;10.51;71.30;102512.44;4978853;28;20038;-80
2024/01/30 04:41:10;;;;;;;0.10;0.10;;;;;;;10.52;71.16;102507.13;4977624;28;20042;-80
2024/01/30 04:43:36;;;;;;;1.27;0.45;;;;;;;10.53;70.75;102508.03;4967842;28;20031;-80
2024/01/30 04:46:04;;;;;;;0.10;0.10;;;;;;;10.49;70.93;102506.22;4973128;28;20037;-81
2024/01/30 04:48:30;;;;;;;0.25;0.25;;;;;;;10.57;70.73;102504.53;4973771;28;20037;-81
2024/01/30 04:50:56;;;;;;;1.15;1.05;;;;;;;10.57;71.06;102509.81;4975731;28;20039;-81
2024/01/30 04:53:22;;;;;;;0.20;0.20;;;;;;;10.55;71.24;102503.63;4979559;28;20031;-81
2024/01/30 04:55:49;;;;;;;0.20;0.20;;;;;;;10.58;70.68;102503.66;4979027;28;20031;-81
2024/01/30 04:58:15;;;;;;;0.63;0.52;;;;;;;10.55;71.08;102498.31;4973111;28;20028;-81
2024/01/30 05:00:41;;;;;;;0.35;0.35;;;;;;;10.56;71.12;102508.03;4972782;28;20027;-81
2024/01/30 05:03:07;;;;;;;0.15;0.15;;;;;;;10.57;70.77;102501.88;4977413;28;20217;-80
2024/01/30 05:05:33;;;;;;;0.25;0.25;;;;;;;10.59;71.04;102499.22;4980303;28;20038;-80
2024/01/30 05:08:00;;;;;;;0.68;0.68;;;;;;;10.63;70.59;102501.00;4969091;28;20532;-80
2024/01/30 05:10:26;;;;;;;0.20;0.20;;;;;;;10.64;70.97;102509.00;4981398;28;20027;-80
2024/01/30 05:12:52;;;;;;;0.30;0.30;;;;;;;10.64;71.06;102503.69;4979701;28;20062;-79
2024/01/30 05:15:19;;;;;;;0.10;0.10;;;;;;;10.62;70.81;102500.13;4974050;28;20034;-81
2024/01/30 05:17:45;;;;;;;0.30;0.30;;;;;;;10.67;70.72;102502.81;4979286;28;20031;-81
2024/01/30 05:20:12;;;;;;;0.20;0.20;;;;;;;10.62;70.98;102497.47;4977552;28;20085;-77
2024/01/30 05:22:38;;;;;;;0.32;0.32;;;;;;;10.70;70.74;102492.22;4978392;28;20121;-79
2024/01/30 05:25:05;;;;;;;1.83;1.48;;;;;;;10.63;71.26;102498.34;4980021;28;20035;-80
2024/01/30 05:27:31;;;;;;;0.30;0.30;;;;;;;10.65;70.91;102494.88;4978101;28;20054;-81
2024/01/30 05:29:57;;;;;;;0.20;0.20;;;;;;;10.68;71.08;102489.56;4979410;28;20069;-80
2024/01/30 05:32:24;;;;;;;0.10;0.10;;;;;;;10.68;71.01;102494.88;4973365;28;20388;-79
2024/01/30 05:34:50;;;;;;;0.10;0.10;;;;;;;10.67;71.13;102495.75;4977682;28;20578;-80
2024/01/30 05:37:17;;;;;;;0.38;0.38;;;;;;;10.67;70.99;102493.09;4978336;28;20387;-79
2024/01/30 05:39:43;;;;;;;0.10;0.10;;;;;;;10.72;70.72;102494.91;4975595;28;20442;-79
2024/01/30 05:42:10;;;;;;;0.73;0.73;;;;;;;10.71;71.08;102493.13;4982097;28;20058;-78
2024/01/30 05:44:36;;;;;;;0.73;0.35;;;;;;;10.72;71.25;102501.09;4980713;28;20084;-79
2024/01/30 05:47:02;;;;;;;0.10;0.10;;;;;;;10.73;71.43;102501.94;4983743;28;20243;-79
2024/01/30 05:49:28;;;;;;;0.73;0.73;;;;;;;10.68;71.55;102510.78;4981616;28;20054;-81
2024/01/30 05:51:54;;;;;;;0.13;0.13;;;;;;;10.72;71.02;102509.03;4975576;28;20027;-80
2024/01/30 05:54:20;;;;;;;0.22;0.22;;;;;;;10.70;71.21;102507.25;4973701;28;20038;-81
2024/01/30 05:56:47;;;;;;;0.20;0.20;;;;;;;10.80;70.94;102511.72;4979383;28;20454;-80
2024/01/30 05:59:13;;;;;;;0.10;0.10;;;;;;;10.79;70.82;102512.59;4978637;28;20094;-81
2024/01/30 06:01:45;;;;;;;0.10;0.10;;;;;;;10.68;71.45;102509.91;4973362;28;20038;-80
2024/01/30 06:04:11;;;;;;;0.20;0.20;;;;;;;10.81;71.02;102516.16;4974748;28;20443;-81
2024/01/30 06:06:37;;;;;;;0.10;0.10;;;;;;;10.83;70.63;102511.75;4977029;28;20034;-79
2024/01/30 06:09:03;;;;;;;0.40;0.40;;;;;;;10.87;70.82;102515.31;4972644;28;20031;-80
2024/01/30 06:11:29;;;;;;;0.20;0.20;;;;;;;10.84;70.85;102522.38;4975952;28;20030;-80
2024/01/30 06:13:56;;;;;;;0.10;0.10;;;;;;;10.91;70.86;102528.59;4974080;28;20109;-80
2024/01/30 06:16:22;;;;;;;0.17;0.17;;;;;;;10.82;71.05;102525.88;4973235;28;20023;-80
2024/01/30 06:18:49;;;;;;;0.55;0.55;;;;;;;10.87;70.85;102524.16;4969905;28;20509;-80
2024/01/30 06:21:15;;;;;;;0.35;0.35;;;;;;;10.86;70.60;102530.31;4973184;28;20039;-82
2024/01/30 06:23:41;;;;;;;0.10;0.10;;;;;;;10.89;71.23;102525.06;4977056;28;20045;-80
2024/01/30 06:26:08;;;;;;;0.10;0.10;;;;;;;10.93;71.03;102515.31;4978942;28;20034;-80
2024/01/30 06:28:34;;;;;;;0.25;0.25;;;;;;;10.92;71.13;102527.72;4984706;28;20034;-81
2024/01/30 06:31:01;;;;;;;0.00;0.00;;;;;;;10.97;70.44;102519.78;4979438;28;20035;-81
2024/01/30 06:33:27;;;;;;;0.10;0.10;;;;;;;10.99;71.09;102520.66;4979661;28;20049;-81
2024/01/30 06:35:54;;;;;;;0.10;0.10;;;;;;;11.02;70.73;102520.69;4981252;28;20560;-81
2024/01/30 06:38:20;;;;;;;0.20;0.20;;;;;;;11.03;70.29;102521.56;4981020;28;21082;-81
2024/01/30 06:40:46;;;;;;;0.10;0.10;;;;;;;11.05;70.44;102527.78;4983457;28;20105;-81
2024/01/30 06:43:12;;;;;;;0.20;0.20;;;;;;;11.07;71.05;102518.94;4976708;28;20494;-80
2024/01/30 06:45:38;;;;;;;0.10;0.10;;;;;;;11.12;70.67;102518.97;4978764;28;20046;-81
2024/01/30 06:48:05;;;;;;;0.40;0.40;;;;;;;11.06;70.87;102522.47;4973484;28;20348;-80
2024/01/30 06:50:31;;;;;;;0.20;0.20;;;;;;;11.10;70.98;102524.28;4983206;28;20030;-80
2024/01/30 06:52:57;;;;;;;0.10;0.10;;;;;;;11.10;70.98;102512.75;4971982;28;20050;-80
2024/01/30 06:55:24;;;;;;;0.20;0.20;;;;;;;11.05;70.85;102520.69;4981085;28;20035;-79
2024/01/30 06:57:50;;;;;;;0.20;0.20;;;;;;;11.08;71.04;102514.50;4982195;28;20023;-80
2024/01/30 07:00:18;;;;;;;0.13;0.13;;;;;;;11.12;70.74;102524.28;4984067;28;20035;-80
2024/01/30 07:02:45;;;;;;;0.50;0.50;;;;;;;11.13;71.21;102523.41;4973442;28;20035;-80
2024/01/30 07:05:11;;;;;;;0.65;0.65;;;;;;;11.10;70.71;102532.25;4973416;28;20090;-79
2024/01/30 07:07:37;;;;;;;0.10;0.10;;;;;;;11.12;70.51;102521.63;4983304;28;20043;-80
2024/01/30 07:10:03;;;;;;;0.10;0.10;;;;;;;11.14;70.95;102531.38;4978285;28;20035;-80
2024/01/30 07:12:31;;;;;;;0.90;0.90;;;;;;;11.17;71.47;102531.38;4974529;28;20062;-79
2024/01/30 07:14:59;;;;;;;0.40;0.40;;;;;;;11.22;70.76;102542.00;4984875;28;20041;-81
2024/01/30 07:17:25;;;;;;;0.28;0.28;;;;;;;11.28;70.90;102544.69;4984904;28;20027;-81
2024/01/30 07:19:51;;;;;;;1.08;0.85;;;;;;;11.26;71.29;102549.09;4985201;28;20425;-79
2024/01/30 07:22:18;;;;;;;0.40;0.40;;;;;;;11.28;71.13;102550.00;4985163;28;20023;-79
2024/01/30 07:24:46;;;;;;;0.10;0.10;;;;;;;11.30;71.26;102547.34;4979183;28;20026;-79
2024/01/30 07:27:13;;;;;;;0.38;0.38;;;;;;;11.35;71.26;102553.53;4984523;28;20045;-80
2024/01/30 07:29:39;;;;;;;3.47;0.63;;;;;;;11.38;70.60;102550.06;4985454;28;20023;-80
2024/01/30 07:32:05;;;;;;;0.15;0.15;;;;;;;11.39;71.32;102558.00;4981819;28;20042;-80
2024/01/30 07:34:31;;;;;;;0.68;0.68;;;;;;;11.44;71.08;102561.56;4982895;28;20034;-80
2024/01/30 07:36:57;;;;;;;0.35;0.30;;;;;;;11.44;70.65;102560.66;4982791;28;20062;-80
2024/01/30 07:39:24;;;;;;;0.25;0.25;;;;;;;11.55;71.03;102555.41;4984736;28;20089;-81
2024/01/30 07:41:50;;;;;;;0.13;0.13;;;;;;;11.53;71.35;102566.03;4980641;28;20035;-80
2024/01/30 07:44:16;;;;;;;0.20;0.20;;;;;;;11.61;70.87;102555.41;4975299;28;20023;-80
2024/01/30 07:46:42;;;;;;;0.10;0.10;;;;;;;11.66;70.59;102566.94;4974995;28;20494;-80
2024/01/30 07:49:08;;;;;;;0.10;0.10;;;;;;;11.64;71.11;102566.94;4980605;28;20062;-79
2024/01/30 07:51:34;;;;;;;0.40;0.40;;;;;;;11.72;71.18;102566.09;4982087;28;20038;-80
2024/01/30 07:54:00;;;;;;;0.25;0.25;;;;;;;11.74;70.78;102565.22;4981609;28;20126;-80
2024/01/30 07:56:27;;;;;;;0.65;0.60;;;;;;;11.78;70.93;102560.78;4984150;28;20118;-80
2024/01/30 07:58:53;;;;;;;0.43;0.43;;;;;;;11.85;71.02;102569.66;4983759;28;20548;-80
2024/01/30 08:01:19;;;;;;;1.00;0.95;;;;;;;11.88;70.88;102567.88;4981327;28;20030;-79
2024/01/30 08:03:45;;;;;;;0.73;0.73;;;;;;;11.91;71.36;102565.25;4975713;28;20066;-79
2024/01/30 08:06:12;;;;;;;0.20;0.20;;;;;;;11.98;71.59;102575.03;4983587;28;20031;-76
2024/01/30 08:08:38;;;;;;;0.75;0.75;;;;;;;12.09;71.11;102571.50;4979116;28;20065;-79
2024/01/30 08:11:04;;;;;;;0.68;0.68;;;;;;;12.04;71.10;102568.84;4980512;28;20033;-80
2024/01/30 08:13:30;;;;;;;0.90;0.90;;;;;;;12.14;71.45;102575.06;4980552;28;20159;-81
2024/01/30 08:15:56;;;;;;;0.45;0.45;;;;;;;12.14;70.92;102585.69;4980139;28;20023;-81
2024/01/30 08:18:22;;;;;;;0.82;0.82;;;;;;;12.27;70.72;102576.84;4981401;28;20019;-80
2024/01/30 08:20:49;;;;;;;0.10;0.10;;;;;;;12.22;70.43;102586.56;4980624;28;20042;-79
2024/01/30 08:23:15;;;;;;;1.95;1.58;;;;;;;12.29;70.52;102579.50;4976563;28;20031;-80
2024/01/30 08:25:41;;;;;;;0.15;0.15;;;;;;;12.44;70.35;102589.25;4970191;28;20130;-79
2024/01/30 08:28:07;;;;;;;0.30;0.30;;;;;;;12.46;70.68;102588.38;4974445;28;20043;-79
2024/01/30 08:30:34;;;;;;;2.88;2.67;;;;;;;12.44;70.32;102594.56;4979195;28;20033;-80
2024/01/30 08:33:00;;;;;;;1.65;0.57;;;;;;;12.52;70.07;102598.09;4977705;28;20058;-80
2024/01/30 08:35:26;;;;;;;0.10;0.10;;;;;;;12.43;70.25;102593.66;4972108;28;20027;-81
2024/01/30 08:37:54;;;;;;;0.30;0.30;;;;;;;12.50;70.03;102588.34;4966766;28;20034;-80
2024/01/30 08:40:20;;;;;;;0.40;0.40;;;;;;;12.53;69.86;102602.53;4982509;28;20029;-81
2024/01/30 08:42:46;;;;;;;1.17;0.77;;;;;;;12.61;69.55;102602.53;4981713;28;20031;-80
2024/01/30 08:45:12;;;;;;;0.50;0.50;;;;;;;12.62;69.70;102594.56;4982743;28;20030;-80
2024/01/30 08:47:40;;;;;;;0.10;0.10;;;;;;;12.61;69.41;102599.88;4983551;28;20031;-80
2024/01/30 08:50:06;;;;;;;0.30;0.30;;;;;;;12.67;69.79;102593.69;4979151;28;20450;-79
2024/01/30 08:52:34;;;;;;;0.10;0.10;;;;;;;12.68;69.87;102604.31;4982176;28;20065;-81
2024/01/30 08:55:00;;;;;;;0.10;0.10;;;;;;;12.71;69.85;102603.41;4987232;28;20079;-78
2024/01/30 08:57:30;;;;;;;0.25;0.25;;;;;;;12.67;69.28;102601.66;5001330;28;20023;-77
2024/01/30 08:59:56;;;;;;;0.20;0.20;;;;;;;12.72;69.82;102610.50;4994903;28;20031;-80
2024/01/30 09:02:22;;;;;;;0.45;0.45;;;;;;;12.85;68.89;102601.63;4982841;28;20034;-81
2024/01/30 09:04:49;;;;;;;0.10;0.10;;;;;;;12.85;69.07;102596.31;4981789;28;20027;-80
2024/01/30 09:07:15;;;;;;;0.20;0.20;;;;;;;12.91;68.83;102606.06;4981898;28;20034;-80
2024/01/30 09:09:41;;;;;;;1.90;1.75;;;;;;;12.93;68.77;102602.53;4980784;28;20090;-80
2024/01/30 09:12:11;;;;;;;0.17;0.17;;;;;;;12.95;68.71;102608.72;4977563;28;20030;-80
2024/01/30 09:14:37;;;;;;;2.60;1.23;;;;;;;12.97;68.25;102595.41;4975744;28;20058;-80
2024/01/30 09:17:04;;;;;;;0.40;0.40;;;;;;;13.09;68.07;102594.50;4979703;28;20605;-80
2024/01/30 09:19:31;;;;;;;1.85;1.55;;;;;;;13.13;67.89;102606.91;4977803;28;20171;-80
2024/01/30 09:21:57;;;;;;;0.73;0.43;;;;;;;13.15;68.11;102615.78;4979001;28;20037;-81
2024/01/30 09:24:23;;;;;;;0.20;0.20;;;;;;;13.11;67.86;102614.91;4980714;28;20058;-79
2024/01/30 09:26:49;;;;;;;0.25;0.25;;;;;;;13.15;67.58;102609.59;4980933;28;20023;-80
2024/01/30 09:29:15;;;;;;;0.10;0.10;;;;;;;13.14;67.76;102619.31;4981853;28;20023;-81
2024/01/30 09:31:44;;;;;;;0.20;0.20;;;;;;;13.25;67.65;102616.66;4979946;28;20031;-80
2024/01/30 09:34:11;;;;;;;0.30;0.30;;;;;;;13.17;67.74;102616.66;4976629;28;20038;-80
2024/01/30 09:36:37;;;;;;;0.10;0.10;;;;;;;13.14;67.58;102623.78;4979302;28;20052;-80
2024/01/30 09:39:04;;;;;;;2.60;1.58;;;;;;;13.16;67.71;102636.19;4979411;28;20027;-80
2024/01/30 09:41:34;;;;;;;0.17;0.17;;;;;;;13.25;67.43;102638.81;4980792;28;20031;-80
2024/01/30 09:44:02;;;;;;;0.32;0.32;;;;;;;13.30;67.23;102635.28;4980936;28;20033;-82
2024/01/30 09:46:31;;;;;;;0.68;0.68;;;;;;;13.37;67.17;102642.31;4978158;28;20031;-82
2024/01/30 09:48:58;;;;;;;0.77;0.77;;;;;;;13.33;67.17;102630.78;4978902;28;20112;-81
2024/01/30 09:51:25;;;;;;;0.93;0.93;;;;;;;13.32;66.94;102638.78;4979140;28;20113;-81
2024/01/30 09:53:51;;;;;;;0.68;0.63;;;;;;;13.37;67.00;102637.00;4981185;28;20026;-82
2024/01/30 09:56:18;;;;;;;1.55;0.80;;;;;;;13.43;66.57;102653.00;4978997;28;20038;-81
2024/01/30 09:58:44;;;;;;;0.10;0.10;;;;;;;13.32;66.60;102660.09;4984498;28;20015;-79
2024/01/30 10:01:10;;;;;;;0.20;0.20;;;;;;;13.27;66.68;102654.78;4985854;28;20023;-80
2024/01/30 10:03:37;;;;;;;0.95;0.95;;;;;;;13.24;66.70;102653.00;4977811;28;20102;-79
2024/01/30 10:06:03;;;;;;;0.52;0.52;;;;;;;13.07;66.48;102652.16;4970468;28;20038;-78
2024/01/30 10:08:29;;;;;;;0.40;0.40;;;;;;;13.20;66.50;102669.00;4980839;28;20031;-79
2024/01/30 10:10:56;;;;;;;0.60;0.60;;;;;;;13.21;66.18;102668.13;4980463;28;20163;-79
2024/01/30 10:13:23;;;;;;;0.32;0.32;;;;;;;13.23;65.69;102666.31;4982274;28;20027;-79
2024/01/30 10:15:49;;;;;;;0.10;0.10;;;;;;;13.08;65.59;102664.56;4967917;28;20033;-78
2024/01/30 10:18:15;;;;;;;0.20;0.20;;;;;;;13.13;65.20;102660.13;4981892;28;20019;-79
2024/01/30 10:20:41;;;;;;;0.30;0.30;;;;;;;13.20;64.85;102664.56;4974405;28;20102;-79
2024/01/30 10:23:08;;;;;;;0.20;0.20;;;;;;;13.25;64.25;102660.09;4975782;28;20089;-79
2024/01/30 10:25:34;;;;;;;0.30;0.30;;;;;;;13.32;64.23;102670.75;4982340;28;20022;-80
2024/01/30 10:28:00;;;;;;;0.10;0.10;;;;;;;13.17;64.05;102661.91;4975613;28;20034;-80
2024/01/30 10:30:28;;;;;;;0.57;0.57;;;;;;;13.11;64.12;102668.13;4981511;28;20034;-79
2024/01/30 10:32:54;;;;;;;0.10;0.10;;;;;;;13.09;63.97;102679.66;4978481;28;20037;-79
2024/01/30 10:35:20;;;;;;;0.30;0.30;;;;;;;12.99;63.75;102684.09;4972294;28;20518;-79
2024/01/30 10:37:48;;;;;;;0.55;0.55;;;;;;;13.01;64.05;102692.06;4980145;28;20022;-78
2024/01/30 10:40:15;;;;;;;0.10;0.10;;;;;;;12.91;63.36;102685.84;4979079;28;20027;-80
2024/01/30 10:42:44;;;;;;;0.15;0.15;;;;;;;12.98;63.43;102694.75;4970779;28;20027;-78
2024/01/30 10:45:13;;;;;;;0.10;0.10;;;;;;;12.75;62.96;102722.25;4979164;28;20077;-79
2024/01/30 10:47:43;;;;;;;0.10;0.10;;;;;;;12.66;62.90;102706.25;4985991;28;20066;-78
2024/01/30 10:50:10;;;;;;;0.10;0.10;;;;;;;12.71;62.35;102699.16;4986410;28;20038;-78
2024/01/30 10:52:37;;;;;;;1.17;1.02;;;;;;;12.59;62.95;102700.94;4985569;28;20086;-78
2024/01/30 10:55:06;;;;;;;0.15;0.15;;;;;;;12.69;62.48;102708.94;4979886;28;20027;-77
2024/01/30 10:57:35;;;;;;;0.10;0.10;;;;;;;12.51;61.98;102702.69;4985529;28;20042;-80
2024/01/30 11:00:06;;;;;;;0.13;0.13;;;;;;;12.43;62.47;102723.06;4991439;28;20498;-78
2024/01/30 11:02:38;;;;;;;0.10;0.10;;;;;;;12.40;62.58;102731.00;4984670;28;20050;-79
2024/01/30 11:05:05;;;;;;;0.10;0.10;;;;;;;12.30;61.85;102725.69;4978166;28;20046;-80
2024/01/30 11:07:32;;;;;;;0.30;0.30;;;;;;;12.22;62.59;102722.09;4982979;28;21288;-80
2024/01/30 11:12:40;;;;;;;0.25;0.25;;;;;;;12.33;61.99;102713.28;5101710;27;1234723;-79
2024/01/30 11:15:09;;;;;;;0.22;0.22;;;;;;;12.22;62.60;102711.47;5126888;27;20023;-79
2024/01/30 11:20:31;;;;;;;0.30;0.30;;;;;;;12.20;62.64;102707.94;5123296;27;20395;-79
2024/01/30 11:22:58;;;;;;;0.10;0.10;;;;;;;12.03;63.71;102765.44;5116656;27;20027;-79
2024/01/30 11:25:25;;;;;;;0.10;0.10;;;;;;;11.89;64.30;102723.72;5101039;28;20054;-77
2024/01/30 11:27:54;;;;;;;0.10;0.10;;;;;;;11.87;64.93;102719.28;5103563;28;20016;-79